createdAt,value
2019-05-17T00:00:57.472Z,0.00
2019-05-17T00:01:57.719Z,0.00
2019-05-17T00:02:57.223Z,0.00
2019-05-17T00:03:57.035Z,0.00
2019-05-17T00:04:57.040Z,0.00
2019-05-17T00:05:57.176Z,0.00
2019-05-17T00:06:57.177Z,0.00
2019-05-17T00:07:57.057Z,0.00
2019-05-17T00:08:57.071Z,0.00
2019-05-17T00:09:57.249Z,0.00
2019-05-17T00:10:57.181Z,0.00
2019-05-17T00:11:57.084Z,0.00
2019-05-17T00:12:57.086Z,0.00
2019-05-17T00:13:57.156Z,0.00
2019-05-17T00:14:57.110Z,0.00
2019-05-17T00:15:57.115Z,0.00
2019-05-17T00:16:57.411Z,0.00
2019-05-17T00:17:57.204Z,0.00
2019-05-17T00:18:57.124Z,0.00
2019-05-17T00:19:57.200Z,0.00
2019-05-17T00:20:57.170Z,0.00
2019-05-17T00:21:57.156Z,0.00
2019-05-17T00:22:57.469Z,0.00
2019-05-17T00:23:57.340Z,0.00
2019-05-17T00:24:57.165Z,0.00
2019-05-17T00:25:57.176Z,0.00
2019-05-17T00:26:58.629Z,0.00
2019-05-17T00:27:57.200Z,0.00
2019-05-17T00:28:57.192Z,0.00
2019-05-17T00:29:57.276Z,0.00
2019-05-17T00:30:57.288Z,0.00
2019-05-17T00:31:57.214Z,0.00
2019-05-17T00:32:57.218Z,0.00
2019-05-17T00:33:57.224Z,0.00
2019-05-17T00:34:57.232Z,0.00
2019-05-17T00:35:57.260Z,0.00
2019-05-17T00:36:57.486Z,0.00
2019-05-17T00:37:57.254Z,0.00
2019-05-17T00:38:57.259Z,0.00
2019-05-17T00:39:57.267Z,0.00
2019-05-17T00:40:57.275Z,0.00
2019-05-17T00:41:57.431Z,0.00
2019-05-17T00:42:57.288Z,0.00
2019-05-17T00:43:57.298Z,0.00
2019-05-17T00:44:57.299Z,0.00
2019-05-17T00:45:57.554Z,0.00
2019-05-17T00:46:58.827Z,0.00
2019-05-17T00:47:57.372Z,0.00
2019-05-17T00:48:57.426Z,0.00
2019-05-17T00:49:57.333Z,0.00
2019-05-17T00:51:02.031Z,0.00
2019-05-17T00:51:57.345Z,0.00
2019-05-17T00:52:57.353Z,0.00
2019-05-17T00:53:57.365Z,0.00
2019-05-17T00:54:57.369Z,0.00
2019-05-17T00:55:57.458Z,0.00
2019-05-17T00:56:57.374Z,0.00
2019-05-17T00:57:57.375Z,0.00
2019-05-17T00:58:57.386Z,0.00
2019-05-17T00:59:57.393Z,0.00
2019-05-17T01:00:57.425Z,0.00
2019-05-17T01:01:57.407Z,0.00
2019-05-17T01:02:57.462Z,0.00
2019-05-17T01:03:57.416Z,0.00
2019-05-17T01:04:57.426Z,0.00
2019-05-17T01:06:57.444Z,0.00
2019-05-17T01:07:57.445Z,0.00
2019-05-17T01:09:01.905Z,0.00
2019-05-17T01:09:57.459Z,0.00
2019-05-17T01:10:57.467Z,0.00
2019-05-17T01:11:57.470Z,0.00
2019-05-17T01:12:57.665Z,0.00
2019-05-17T01:13:58.737Z,0.00
2019-05-17T01:14:58.287Z,0.00
2019-05-17T01:15:57.503Z,0.00
2019-05-17T01:16:57.517Z,0.00
2019-05-17T01:17:57.509Z,0.00
2019-05-17T01:18:57.518Z,0.00
2019-05-17T01:19:57.568Z,0.00
2019-05-17T01:20:57.531Z,0.00
2019-05-17T01:21:57.533Z,0.00
2019-05-17T01:22:57.555Z,0.00
2019-05-17T01:23:57.561Z,0.00
2019-05-17T01:24:57.598Z,0.00
2019-05-17T01:25:57.557Z,0.00
2019-05-17T01:26:57.569Z,0.00
2019-05-17T01:27:57.576Z,0.00
2019-05-17T01:28:57.592Z,0.00
2019-05-17T01:29:57.593Z,0.00
2019-05-17T01:30:57.597Z,0.00
2019-05-17T01:31:57.610Z,0.00
2019-05-17T01:32:57.598Z,0.00
2019-05-17T01:33:57.615Z,0.00
2019-05-17T01:34:57.619Z,0.00
2019-05-17T01:35:57.638Z,0.00
2019-05-17T01:36:57.634Z,0.00
2019-05-17T01:37:57.641Z,0.00
2019-05-17T01:38:57.824Z,0.00
2019-05-17T01:39:57.652Z,0.00
2019-05-17T01:40:57.668Z,0.00
2019-05-17T01:41:57.670Z,0.00
2019-05-17T01:42:58.168Z,0.00
2019-05-17T01:43:57.678Z,0.00
2019-05-17T01:44:57.686Z,0.00
2019-05-17T01:45:57.694Z,0.00
2019-05-17T01:46:57.695Z,0.00
2019-05-17T01:47:57.702Z,0.00
2019-05-17T01:48:57.884Z,0.00
2019-05-17T01:49:57.769Z,0.00
2019-05-17T01:50:57.729Z,0.00
2019-05-17T01:51:57.775Z,0.00
2019-05-17T01:52:57.727Z,0.00
2019-05-17T01:53:57.748Z,0.00
2019-05-17T01:54:57.746Z,0.00
2019-05-17T01:55:57.756Z,0.00
2019-05-17T01:56:57.761Z,0.00
2019-05-17T01:57:57.765Z,0.00
2019-05-17T01:58:57.768Z,0.00
2019-05-17T01:59:57.779Z,0.00
2019-05-17T02:00:57.787Z,0.00
2019-05-17T02:01:57.791Z,0.00
2019-05-17T02:02:57.879Z,0.00
2019-05-17T02:03:57.802Z,0.00
2019-05-17T02:04:57.813Z,0.00
2019-05-17T02:05:57.816Z,0.00
2019-05-17T02:06:57.833Z,0.00
2019-05-17T02:07:57.820Z,0.00
2019-05-17T02:08:57.841Z,0.00
2019-05-17T02:09:57.845Z,0.00
2019-05-17T02:10:57.849Z,0.00
2019-05-17T02:11:57.934Z,0.00
2019-05-17T02:12:57.859Z,0.00
2019-05-17T02:13:57.867Z,0.00
2019-05-17T02:14:57.871Z,0.00
2019-05-17T02:15:57.889Z,0.00
2019-05-17T02:16:57.892Z,0.00
2019-05-17T02:17:57.893Z,0.00
2019-05-17T02:18:57.984Z,0.00
2019-05-17T02:19:58.060Z,0.00
2019-05-17T02:20:58.104Z,0.00
2019-05-17T02:21:58.163Z,0.00
2019-05-17T02:22:57.975Z,0.00
2019-05-17T02:23:58.078Z,0.00
2019-05-17T02:24:57.998Z,0.00
2019-05-17T02:25:58.164Z,0.00
2019-05-17T02:26:57.948Z,0.00
2019-05-17T02:27:57.949Z,0.00
2019-05-17T02:28:57.961Z,0.00
2019-05-17T02:29:57.966Z,0.00
2019-05-17T02:30:57.982Z,0.00
2019-05-17T02:31:57.985Z,0.00
2019-05-17T02:32:57.987Z,0.00
2019-05-17T02:33:57.996Z,0.00
2019-05-17T02:34:58.006Z,0.00
2019-05-17T02:35:58.008Z,0.00
2019-05-17T02:36:58.019Z,0.00
2019-05-17T02:37:58.019Z,0.00
2019-05-17T02:38:58.024Z,0.00
2019-05-17T02:40:03.075Z,0.00
2019-05-17T02:40:58.036Z,0.00
2019-05-17T02:41:58.050Z,0.00
2019-05-17T02:42:58.063Z,0.00
2019-05-17T02:43:58.066Z,0.00
2019-05-17T02:44:58.066Z,0.00
2019-05-17T02:45:58.069Z,0.00
2019-05-17T02:46:58.079Z,0.00
2019-05-17T02:47:58.083Z,0.00
2019-05-17T02:48:58.083Z,0.00
2019-05-17T02:49:58.092Z,0.00
2019-05-17T02:50:58.100Z,0.00
2019-05-17T02:51:58.110Z,0.00
2019-05-17T02:52:58.110Z,0.00
2019-05-17T02:53:58.117Z,0.00
2019-05-17T02:54:58.132Z,0.00
2019-05-17T02:55:58.133Z,0.00
2019-05-17T02:56:58.144Z,0.00
2019-05-17T02:57:58.152Z,4.00
2019-05-17T02:58:58.154Z,4.00
2019-05-17T02:59:58.158Z,4.00
2019-05-17T03:00:58.164Z,4.00
2019-05-17T04:23:53.749Z,932.00
2019-05-17T04:27:53.392Z,1060.00
2019-05-17T04:29:53.148Z,1148.00
2019-05-17T04:30:53.866Z,1180.00
2019-05-17T04:31:55.336Z,1244.00
2019-05-17T04:32:56.834Z,1224.00
2019-05-17T04:33:49.839Z,1240.00
2019-05-17T04:34:53.351Z,1288.00
2019-05-17T04:36:52.100Z,1304.00
2019-05-17T04:37:48.858Z,1336.00
2019-05-17T04:38:48.335Z,1324.00
2019-05-17T04:39:52.414Z,1340.00
2019-05-17T04:40:53.641Z,1392.00
2019-05-17T04:41:54.808Z,1440.00
2019-05-17T04:42:54.854Z,1488.00
2019-05-17T04:43:52.929Z,1516.00
2019-05-17T04:44:52.636Z,1556.00
2019-05-17T04:45:53.248Z,1576.00
2019-05-17T04:46:48.859Z,1744.00
2019-05-17T04:47:52.684Z,1752.00
2019-05-17T04:48:53.456Z,1932.00
2019-05-17T04:49:53.312Z,2028.00
2019-05-17T04:50:53.520Z,1960.00
2019-05-17T04:51:52.484Z,1884.00
2019-05-17T04:52:53.341Z,1932.00
2019-05-17T04:53:48.859Z,2064.00
2019-05-17T04:54:53.357Z,2152.00
2019-05-17T04:55:49.347Z,2292.00
2019-05-17T04:56:54.862Z,2508.00
2019-05-17T04:57:53.051Z,2860.00
2019-05-17T04:58:50.229Z,2784.00
2019-05-17T04:59:52.184Z,2568.00
2019-05-17T05:00:48.344Z,2556.00
2019-05-17T05:01:48.862Z,2708.00
2019-05-17T05:02:47.852Z,3352.00
2019-05-17T05:03:48.880Z,3520.00
2019-05-17T05:04:48.366Z,3716.00
2019-05-17T05:05:53.172Z,3740.00
2019-05-17T05:06:52.339Z,3544.00
2019-05-17T05:07:47.855Z,3896.00
2019-05-17T05:08:48.865Z,3952.00
2019-05-17T05:09:47.845Z,3816.00
2019-05-17T05:10:47.864Z,3900.00
2019-05-17T05:11:57.023Z,4588.00
2019-05-17T05:12:48.867Z,4196.00
2019-05-17T05:13:47.874Z,4844.00
2019-05-17T05:14:47.885Z,4836.00
2019-05-17T05:15:47.842Z,4684.00
2019-05-17T05:16:47.913Z,4564.00
2019-05-17T05:17:47.857Z,4656.00
2019-05-17T05:18:47.226Z,4732.00
2019-05-17T05:19:47.862Z,4724.00
2019-05-17T05:20:47.248Z,4708.00
2019-05-17T05:21:47.261Z,4460.00
2019-05-17T05:22:47.257Z,4404.00
2019-05-17T05:23:47.275Z,3984.00
2019-05-17T05:24:47.278Z,4040.00
2019-05-17T05:25:47.283Z,4492.00
2019-05-17T05:26:47.300Z,4728.00
2019-05-17T05:27:47.298Z,4684.00
2019-05-17T05:28:49.623Z,4768.00
2019-05-17T05:29:47.311Z,4072.00
2019-05-17T05:30:47.317Z,4240.00
2019-05-17T05:31:47.330Z,3604.00
2019-05-17T05:32:47.340Z,3588.00
2019-05-17T05:33:47.342Z,3632.00
2019-05-17T05:34:47.355Z,3688.00
2019-05-17T05:35:47.360Z,3780.00
2019-05-17T05:36:47.358Z,3920.00
2019-05-17T05:37:47.369Z,3932.00
2019-05-17T05:38:47.375Z,3860.00
2019-05-17T05:39:47.382Z,3856.00
2019-05-17T05:40:47.397Z,3700.00
2019-05-17T05:41:47.400Z,3616.00
2019-05-17T05:42:47.408Z,3620.00
2019-05-17T05:43:47.418Z,3764.00
2019-05-17T05:44:47.425Z,3820.00
2019-05-17T05:45:47.430Z,3856.00
2019-05-17T05:46:47.442Z,3792.00
2019-05-17T05:47:47.449Z,3672.00
2019-05-17T05:48:47.452Z,3716.00
2019-05-17T05:49:47.462Z,3924.00
2019-05-17T05:50:47.473Z,3868.00
2019-05-17T05:51:47.466Z,3800.00
2019-05-17T05:52:47.482Z,3744.00
2019-05-17T05:53:47.491Z,3844.00
2019-05-17T05:54:47.497Z,4036.00
2019-05-17T05:55:47.507Z,4128.00
2019-05-17T05:56:47.510Z,4148.00
2019-05-17T05:57:47.519Z,4280.00
2019-05-17T05:58:47.527Z,4300.00
2019-05-17T05:59:47.538Z,4244.00
2019-05-17T06:00:47.545Z,4280.00
2019-05-17T06:01:47.553Z,4264.00
2019-05-17T06:02:47.556Z,4392.00
2019-05-17T06:03:47.557Z,4448.00
2019-05-17T06:04:47.580Z,4556.00
2019-05-17T06:05:47.582Z,4624.00
2019-05-17T06:06:47.587Z,4848.00
2019-05-17T06:07:47.598Z,5256.00
2019-05-17T06:08:47.601Z,5376.00
2019-05-17T06:09:47.618Z,5532.00
2019-05-17T06:10:47.617Z,5436.00
2019-05-17T06:11:47.628Z,5424.00
2019-05-17T06:12:47.645Z,5488.00
2019-05-17T06:13:47.651Z,5292.00
2019-05-17T06:14:47.658Z,5408.00
2019-05-17T06:15:47.660Z,5656.00
2019-05-17T06:16:47.838Z,6636.00
2019-05-17T06:17:47.672Z,6536.00
2019-05-17T06:18:47.697Z,6852.00
2019-05-17T06:19:47.693Z,6380.00
2019-05-17T06:20:47.695Z,5912.00
2019-05-17T06:21:47.707Z,5952.00
2019-05-17T06:22:47.715Z,7308.00
2019-05-17T06:23:47.725Z,5564.00
2019-05-17T06:24:47.732Z,5632.00
2019-05-17T06:25:47.746Z,5628.00
2019-05-17T06:26:47.763Z,5760.00
2019-05-17T06:27:47.760Z,5992.00
2019-05-17T06:28:47.767Z,5784.00
2019-05-17T06:29:47.783Z,5788.00
2019-05-17T06:30:47.787Z,5564.00
2019-05-17T06:31:47.797Z,5580.00
2019-05-17T06:32:47.834Z,5360.00
2019-05-17T06:33:47.819Z,5120.00
2019-05-17T06:34:47.835Z,4960.00
2019-05-17T06:35:47.848Z,4744.00
2019-05-17T06:36:47.843Z,4616.00
2019-05-17T06:37:47.853Z,4524.00
2019-05-17T06:38:47.856Z,4424.00
2019-05-17T06:39:47.931Z,4400.00
2019-05-17T06:40:47.875Z,4328.00
2019-05-17T06:41:47.889Z,4344.00
2019-05-17T06:42:47.893Z,4380.00
2019-05-17T06:43:47.897Z,4604.00
2019-05-17T06:44:47.917Z,4508.00
2019-05-17T06:45:47.924Z,4312.00
2019-05-17T06:46:47.927Z,4324.00
2019-05-17T06:47:47.932Z,4184.00
2019-05-17T06:48:47.938Z,4120.00
2019-05-17T06:49:50.516Z,4100.00
2019-05-17T06:50:47.960Z,4000.00
2019-05-17T06:51:48.068Z,3960.00
2019-05-17T06:52:47.976Z,3912.00
2019-05-17T06:53:47.996Z,3916.00
2019-05-17T06:54:47.993Z,3904.00
2019-05-17T06:55:47.997Z,4016.00
2019-05-17T06:56:48.022Z,4044.00
2019-05-17T06:57:48.035Z,3964.00
2019-05-17T06:58:48.028Z,3892.00
2019-05-17T06:59:48.038Z,4168.00
2019-05-17T07:00:49.774Z,3960.00
2019-05-17T07:01:50.271Z,4040.00
2019-05-17T07:02:49.803Z,4136.00
2019-05-17T07:03:49.527Z,4180.00
2019-05-17T07:04:48.117Z,4172.00
2019-05-17T07:05:50.098Z,4148.00
2019-05-17T07:06:49.529Z,4052.00
2019-05-17T07:07:49.821Z,4000.00
2019-05-17T07:08:49.567Z,3980.00
2019-05-17T07:09:49.660Z,4124.00
2019-05-17T07:10:50.125Z,4216.00
2019-05-17T07:11:48.184Z,4332.00
2019-05-17T07:12:55.963Z,4332.00
2019-05-17T07:13:49.620Z,4260.00
2019-05-17T07:14:50.553Z,4208.00
2019-05-17T07:15:50.906Z,4028.00
2019-05-17T07:16:50.083Z,3936.00
2019-05-17T07:17:50.278Z,3856.00
2019-05-17T07:18:49.422Z,3884.00
2019-05-17T07:19:50.586Z,3904.00
2019-05-17T07:20:50.211Z,3964.00
2019-05-17T07:21:49.455Z,4068.00
2019-05-17T07:22:50.543Z,4216.00
2019-05-17T07:23:49.894Z,4276.00
2019-05-17T07:24:50.258Z,4412.00
2019-05-17T07:25:50.278Z,4588.00
2019-05-17T07:26:49.800Z,4888.00
2019-05-17T07:27:50.324Z,5184.00
2019-05-17T07:28:49.806Z,5296.00
2019-05-17T07:29:49.703Z,5548.00
2019-05-17T07:30:50.368Z,5596.00
2019-05-17T07:31:49.784Z,5680.00
2019-05-17T07:32:49.803Z,6016.00
2019-05-17T07:33:50.367Z,6576.00
2019-05-17T07:34:50.186Z,7580.00
2019-05-17T07:35:50.211Z,8428.00
2019-05-17T07:36:50.250Z,8708.00
2019-05-17T07:37:50.150Z,8844.00
2019-05-17T07:38:50.514Z,8608.00
2019-05-17T07:40:00.487Z,8296.00
2019-05-17T07:40:50.178Z,7760.00
2019-05-17T07:41:49.405Z,7172.00
2019-05-17T07:42:50.079Z,6688.00
2019-05-17T07:43:49.788Z,6380.00
2019-05-17T07:44:49.653Z,6152.00
2019-05-17T07:45:49.645Z,6100.00
2019-05-17T07:46:51.698Z,6060.00
2019-05-17T07:47:49.439Z,6036.00
2019-05-17T07:48:49.744Z,6004.00
2019-05-17T07:49:49.454Z,6288.00
2019-05-17T07:50:50.438Z,6396.00
2019-05-17T07:51:50.267Z,6588.00
2019-05-17T07:52:49.972Z,7032.00
2019-05-17T07:53:49.538Z,8288.00
2019-05-17T07:54:50.845Z,9492.00
2019-05-17T07:55:50.544Z,10564.00
2019-05-17T07:56:50.542Z,10956.00
2019-05-17T07:57:49.596Z,10776.00
2019-05-17T07:58:49.494Z,10320.00
2019-05-17T07:59:50.777Z,9564.00
2019-05-17T08:00:51.266Z,8416.00
2019-05-17T08:01:50.295Z,7468.00
2019-05-17T08:02:50.496Z,6248.00
2019-05-17T08:03:50.099Z,5216.00
2019-05-17T08:04:50.134Z,4852.00
2019-05-17T08:05:50.591Z,4860.00
2019-05-17T08:06:50.491Z,5272.00
2019-05-17T08:07:50.012Z,5688.00
2019-05-17T08:08:50.151Z,6056.00
2019-05-17T08:09:50.696Z,6376.00
2019-05-17T08:10:50.954Z,6412.00
2019-05-17T08:11:50.183Z,6188.00
2019-05-17T08:12:49.768Z,5896.00
2019-05-17T08:13:50.438Z,5508.00
2019-05-17T08:14:50.262Z,5056.00
2019-05-17T08:15:50.180Z,4656.00
2019-05-17T08:16:50.178Z,4864.00
2019-05-17T08:17:50.227Z,5116.00
2019-05-17T08:18:49.659Z,5284.00
2019-05-17T08:19:49.837Z,5356.00
2019-05-17T08:20:50.145Z,5388.00
2019-05-17T08:21:50.221Z,5264.00
2019-05-17T08:22:50.234Z,5104.00
2019-05-17T08:23:50.542Z,5020.00
2019-05-17T08:24:49.401Z,4624.00
2019-05-17T08:25:53.743Z,4320.00
2019-05-17T08:26:50.262Z,3960.00
2019-05-17T08:27:50.373Z,3584.00
2019-05-17T08:28:49.940Z,3332.00
2019-05-17T08:29:49.884Z,3152.00
2019-05-17T08:30:50.132Z,3108.00
2019-05-17T08:31:49.687Z,3024.00
2019-05-17T08:32:50.470Z,2816.00
2019-05-17T08:33:49.797Z,2524.00
2019-05-17T08:34:51.336Z,2384.00
2019-05-17T08:35:49.477Z,2376.00
2019-05-17T08:36:49.885Z,2600.00
2019-05-17T08:37:49.881Z,2668.00
2019-05-17T08:38:50.165Z,2832.00
2019-05-17T08:39:50.500Z,2936.00
2019-05-17T08:40:50.995Z,3056.00
2019-05-17T08:41:49.743Z,3232.00
2019-05-17T08:42:49.877Z,3540.00
2019-05-17T08:43:51.137Z,3808.00
2019-05-17T08:44:49.817Z,4012.00
2019-05-17T08:45:50.198Z,4344.00
2019-05-17T08:46:50.099Z,4868.00
2019-05-17T08:47:50.023Z,5612.00
2019-05-17T08:48:49.487Z,5996.00
2019-05-17T08:49:49.666Z,6220.00
2019-05-17T08:50:49.505Z,6240.00
2019-05-17T08:51:50.030Z,5972.00
2019-05-17T08:52:49.469Z,5728.00
2019-05-17T08:53:49.340Z,5720.00
2019-05-17T08:54:49.585Z,5372.00
2019-05-17T08:55:50.047Z,5016.00
2019-05-17T08:56:50.377Z,4808.00
2019-05-17T08:57:50.054Z,4788.00
2019-05-17T08:58:49.819Z,5148.00
2019-05-17T08:59:49.750Z,5624.00
2019-05-17T09:00:50.473Z,5056.00
2019-05-17T09:01:50.570Z,4888.00
2019-05-17T09:02:50.026Z,4940.00
2019-05-17T09:03:50.596Z,5020.00
2019-05-17T09:04:49.778Z,5064.00
2019-05-17T09:05:52.595Z,4948.00
2019-05-17T09:06:50.435Z,4652.00
2019-05-17T09:07:49.389Z,4760.00
2019-05-17T09:08:50.015Z,4864.00
2019-05-17T09:09:50.109Z,5004.00
2019-05-17T09:10:50.452Z,5216.00
2019-05-17T09:11:50.137Z,5000.00
2019-05-17T09:12:50.225Z,4804.00
2019-05-17T09:13:58.002Z,4724.00
2019-05-17T09:14:49.661Z,4516.00
2019-05-17T09:15:49.555Z,4308.00
2019-05-17T09:16:50.474Z,4208.00
2019-05-17T09:17:49.863Z,3812.00
2019-05-17T09:18:50.182Z,3568.00
2019-05-17T09:19:51.002Z,3532.00
2019-05-17T09:20:49.610Z,3796.00
2019-05-17T09:21:50.334Z,4236.00
2019-05-17T09:22:51.026Z,4704.00
2019-05-17T09:23:50.371Z,5132.00
2019-05-17T09:24:49.970Z,5592.00
2019-05-17T09:25:50.182Z,6156.00
2019-05-17T09:26:49.354Z,5936.00
2019-05-17T09:27:50.100Z,5624.00
2019-05-17T09:28:49.924Z,5160.00
2019-05-17T09:29:49.746Z,4652.00
2019-05-17T09:30:50.748Z,4068.00
2019-05-17T09:31:50.483Z,3668.00
2019-05-17T09:32:50.380Z,3420.00
2019-05-17T09:33:49.710Z,3096.00
2019-05-17T09:34:49.805Z,3052.00
2019-05-17T09:35:49.987Z,2836.00
2019-05-17T09:36:49.711Z,2836.00
2019-05-17T09:37:49.956Z,3168.00
2019-05-17T09:38:49.547Z,3668.00
2019-05-17T09:39:49.418Z,4452.00
2019-05-17T09:40:50.534Z,5940.00
2019-05-17T09:41:50.314Z,8292.00
2019-05-17T09:42:49.955Z,10384.00
2019-05-17T09:43:49.763Z,12364.00
2019-05-17T09:44:49.753Z,12228.00
2019-05-17T09:45:50.698Z,11800.00
2019-05-17T09:46:50.405Z,12180.00
2019-05-17T09:47:50.532Z,12136.00
2019-05-17T09:48:50.470Z,13776.00
2019-05-17T09:50:50.458Z,9184.00
2019-05-17T09:51:49.738Z,7320.00
2019-05-17T09:52:49.662Z,6576.00
2019-05-17T09:53:49.736Z,7108.00
2019-05-17T09:54:50.493Z,7944.00
2019-05-17T09:55:49.921Z,8052.00
2019-05-17T09:56:49.780Z,7168.00
2019-05-17T09:57:49.825Z,6332.00
2019-05-17T09:58:49.633Z,6056.00
2019-05-17T09:59:49.694Z,5468.00
2019-05-17T10:00:49.648Z,4940.00
2019-05-17T10:01:49.594Z,4668.00
2019-05-17T10:02:50.770Z,4668.00
2019-05-17T10:03:50.650Z,4904.00
2019-05-17T10:04:50.241Z,4972.00
2019-05-17T10:06:51.359Z,4412.00
2019-05-17T10:07:50.623Z,4052.00
2019-05-17T10:08:49.704Z,3716.00
2019-05-17T10:09:50.216Z,3320.00
2019-05-17T10:11:04.170Z,3272.00
2019-05-17T10:11:49.670Z,2952.00
2019-05-17T10:12:49.963Z,2888.00
2019-05-17T10:13:49.987Z,3112.00
2019-05-17T10:14:49.948Z,3312.00
2019-05-17T10:15:50.160Z,3580.00
2019-05-17T10:16:49.712Z,3880.00
2019-05-17T10:17:49.717Z,4324.00
2019-05-17T10:18:49.731Z,4880.00
2019-05-17T10:19:49.744Z,5652.00
2019-05-17T10:20:50.648Z,6512.00
2019-05-17T10:21:49.763Z,7044.00
2019-05-17T10:22:50.375Z,7308.00
2019-05-17T10:23:49.991Z,7068.00
2019-05-17T10:24:49.809Z,6396.00
2019-05-17T10:25:49.785Z,5796.00
2019-05-17T10:26:49.960Z,5252.00
2019-05-17T10:27:49.946Z,4964.00
2019-05-17T10:28:51.654Z,4836.00
2019-05-17T10:29:50.226Z,4868.00
2019-05-17T10:30:52.269Z,5128.00
2019-05-17T10:31:50.471Z,5768.00
2019-05-17T10:32:50.483Z,6688.00
2019-05-17T10:33:49.852Z,7932.00
2019-05-17T10:34:49.874Z,9264.00
2019-05-17T10:35:49.871Z,10736.00
2019-05-17T10:36:50.650Z,11844.00
2019-05-17T10:37:50.577Z,12224.00
2019-05-17T10:38:50.306Z,11960.00
2019-05-17T10:39:50.344Z,11940.00
2019-05-17T10:40:50.226Z,11664.00
2019-05-17T10:41:50.152Z,11096.00
2019-05-17T10:42:50.152Z,10772.00
2019-05-17T10:43:50.251Z,10472.00
2019-05-17T10:44:51.415Z,9796.00
2019-05-17T10:45:49.969Z,9180.00
2019-05-17T10:46:49.966Z,8616.00
2019-05-17T10:47:50.415Z,7876.00
2019-05-17T10:48:50.220Z,7284.00
2019-05-17T10:49:50.011Z,6848.00
2019-05-17T10:50:50.019Z,6320.00
2019-05-17T10:51:50.023Z,5776.00
2019-05-17T10:52:50.046Z,5400.00
2019-05-17T10:53:51.343Z,5112.00
2019-05-17T10:54:50.062Z,5000.00
2019-05-17T10:55:50.061Z,4960.00
2019-05-17T10:56:50.306Z,4972.00
2019-05-17T10:57:50.213Z,5188.00
2019-05-17T10:58:50.125Z,5452.00
2019-05-17T10:59:50.100Z,5764.00
2019-05-17T11:00:50.301Z,6032.00
2019-05-17T11:01:50.303Z,6208.00
2019-05-17T11:02:50.483Z,6172.00
2019-05-17T11:03:50.392Z,6204.00
2019-05-17T11:04:50.691Z,6060.00
2019-05-17T11:05:50.416Z,5800.00
2019-05-17T11:06:50.234Z,5768.00
2019-05-17T11:07:50.674Z,6020.00
2019-05-17T11:08:50.309Z,6120.00
2019-05-17T11:09:50.849Z,6048.00
2019-05-17T11:10:50.361Z,5648.00
2019-05-17T11:11:50.214Z,5112.00
2019-05-17T11:12:50.222Z,4852.00
2019-05-17T11:13:52.890Z,4436.00
2019-05-17T11:15:01.069Z,4208.00
2019-05-17T11:15:50.244Z,4004.00
2019-05-17T11:16:50.256Z,3972.00
2019-05-17T11:17:50.260Z,4052.00
2019-05-17T11:18:50.268Z,4200.00
2019-05-17T11:19:50.278Z,4388.00
2019-05-17T11:20:50.285Z,4580.00
2019-05-17T11:21:50.307Z,4536.00
2019-05-17T11:22:50.310Z,4408.00
2019-05-17T11:23:50.313Z,4032.00
2019-05-17T11:24:50.319Z,3644.00
2019-05-17T11:25:50.328Z,3380.00
2019-05-17T11:26:50.343Z,3356.00
2019-05-17T11:27:50.352Z,3428.00
2019-05-17T11:28:50.361Z,3592.00
2019-05-17T11:29:50.372Z,3772.00
2019-05-17T11:30:50.375Z,3844.00
2019-05-17T11:31:50.386Z,3728.00
2019-05-17T11:32:50.390Z,3356.00
2019-05-17T11:33:50.406Z,2920.00
2019-05-17T11:34:50.419Z,2620.00
2019-05-17T11:35:50.426Z,2444.00
2019-05-17T11:36:50.444Z,2400.00
2019-05-17T11:37:50.435Z,2332.00
2019-05-17T11:38:50.449Z,2368.00
2019-05-17T11:39:50.454Z,2468.00
2019-05-17T11:40:50.459Z,2652.00
2019-05-17T11:41:50.478Z,2952.00
2019-05-17T11:42:50.488Z,3208.00
2019-05-17T11:43:50.493Z,3444.00
2019-05-17T11:44:50.502Z,3644.00
2019-05-17T11:45:50.501Z,3596.00
2019-05-17T11:46:50.510Z,3816.00
2019-05-17T11:47:50.537Z,3896.00
2019-05-17T11:48:50.559Z,3908.00
2019-05-17T11:49:50.544Z,3804.00
2019-05-17T11:50:50.550Z,3676.00
2019-05-17T11:51:50.566Z,3480.00
2019-05-17T11:52:50.578Z,3528.00
2019-05-17T11:53:50.587Z,3748.00
2019-05-17T11:54:50.596Z,3924.00
2019-05-17T11:55:50.773Z,3968.00
2019-05-17T11:56:50.594Z,3952.00
2019-05-17T11:57:50.616Z,3764.00
2019-05-17T11:58:50.633Z,3648.00
2019-05-17T11:59:50.623Z,3672.00
2019-05-17T12:00:50.635Z,3568.00
2019-05-17T12:01:50.647Z,3608.00
2019-05-17T12:02:50.652Z,3772.00
2019-05-17T12:03:50.664Z,3876.00
2019-05-17T12:04:50.699Z,4028.00
2019-05-17T12:05:50.672Z,4104.00
2019-05-17T12:06:50.680Z,4320.00
2019-05-17T12:07:50.689Z,4708.00
2019-05-17T12:08:50.696Z,4964.00
2019-05-17T12:09:50.701Z,5124.00
2019-05-17T12:10:50.865Z,5048.00
2019-05-17T12:11:50.728Z,5016.00
2019-05-17T12:12:50.739Z,4992.00
2019-05-17T12:13:50.746Z,5124.00
2019-05-17T12:14:50.752Z,5156.00
2019-05-17T12:15:50.767Z,5464.00
2019-05-17T12:16:50.777Z,5932.00
2019-05-17T12:17:50.771Z,6632.00
2019-05-17T12:18:50.779Z,7304.00
2019-05-17T12:19:50.797Z,7952.00
2019-05-17T12:20:50.801Z,8424.00
2019-05-17T12:21:50.813Z,8740.00
2019-05-17T12:22:50.813Z,8964.00
2019-05-17T12:23:50.929Z,9296.00
2019-05-17T12:24:50.840Z,9292.00
2019-05-17T12:25:50.853Z,9280.00
2019-05-17T12:26:50.853Z,9160.00
2019-05-17T12:27:50.861Z,9024.00
2019-05-17T12:28:50.879Z,8872.00
2019-05-17T12:29:50.892Z,8604.00
2019-05-17T12:30:50.892Z,8468.00
2019-05-17T12:31:50.897Z,8660.00
2019-05-17T12:32:50.907Z,8448.00
2019-05-17T12:33:50.908Z,8204.00
2019-05-17T12:34:50.925Z,8276.00
2019-05-17T12:35:50.940Z,8168.00
2019-05-17T12:36:50.951Z,8092.00
2019-05-17T12:37:50.959Z,8076.00
2019-05-17T12:38:50.963Z,8076.00
2019-05-17T12:39:50.977Z,8120.00
2019-05-17T12:40:50.991Z,8108.00
2019-05-17T12:41:51.022Z,8044.00
2019-05-17T12:42:51.011Z,7912.00
2019-05-17T12:43:51.022Z,7960.00
2019-05-17T12:44:51.024Z,7832.00
2019-05-17T12:46:00.007Z,7860.00
2019-05-17T12:46:51.040Z,7964.00
2019-05-17T12:47:51.063Z,7744.00
2019-05-17T12:48:51.062Z,7748.00
2019-05-17T12:49:51.087Z,7728.00
2019-05-17T12:50:51.086Z,7672.00
2019-05-17T12:51:51.095Z,7704.00
2019-05-17T12:52:51.140Z,7692.00
2019-05-17T12:53:51.115Z,7680.00
2019-05-17T12:54:51.117Z,7744.00
2019-05-17T12:55:51.131Z,7788.00
2019-05-17T12:56:51.158Z,7816.00
2019-05-17T12:57:51.144Z,7872.00
2019-05-17T12:58:51.159Z,7908.00
2019-05-17T12:59:51.165Z,8056.00
2019-05-17T13:00:51.181Z,7932.00
2019-05-17T13:01:51.203Z,7928.00
2019-05-17T13:02:51.207Z,7960.00
2019-05-17T13:03:51.222Z,8008.00
2019-05-17T13:04:51.218Z,8132.00
2019-05-17T13:05:51.263Z,8304.00
2019-05-17T13:06:51.301Z,8552.00
2019-05-17T13:07:51.260Z,8872.00
2019-05-17T13:08:51.277Z,9552.00
2019-05-17T13:09:51.274Z,9644.00
2019-05-17T13:10:51.276Z,10104.00
2019-05-17T13:11:51.281Z,10628.00
2019-05-17T13:12:51.298Z,11084.00
2019-05-17T13:13:51.365Z,11680.00
2019-05-17T13:14:51.323Z,12292.00
2019-05-17T13:15:51.336Z,12932.00
2019-05-17T13:16:51.392Z,13440.00
2019-05-17T13:17:51.355Z,13904.00
2019-05-17T13:18:51.383Z,14676.00
2019-05-17T13:19:51.377Z,15776.00
2019-05-17T13:20:51.387Z,15180.00
2019-05-17T13:21:51.390Z,15052.00
2019-05-17T13:22:51.427Z,15036.00
2019-05-17T13:23:51.419Z,14180.00
2019-05-17T13:24:51.455Z,13312.00
2019-05-17T13:25:51.451Z,12768.00
2019-05-17T13:26:51.451Z,12504.00
2019-05-17T13:27:51.488Z,12508.00
2019-05-17T13:28:51.480Z,13172.00
2019-05-17T13:29:51.669Z,12988.00
2019-05-17T13:30:51.513Z,13088.00
2019-05-17T13:31:51.591Z,13408.00
2019-05-17T13:32:51.544Z,14112.00
2019-05-17T13:33:51.562Z,15352.00
2019-05-17T13:34:51.547Z,14708.00
2019-05-17T13:35:51.572Z,14864.00
2019-05-17T13:36:51.623Z,14516.00
2019-05-17T13:37:51.597Z,14836.00
2019-05-17T13:38:51.612Z,13776.00
2019-05-17T13:39:51.628Z,13548.00
2019-05-17T13:40:51.635Z,13752.00
2019-05-17T13:41:51.640Z,14400.00
2019-05-17T13:42:51.667Z,14612.00
2019-05-17T13:43:51.669Z,16152.00
2019-05-17T13:44:51.680Z,15080.00
2019-05-17T13:45:51.697Z,16240.00
2019-05-17T13:46:51.703Z,15816.00
2019-05-17T13:47:51.714Z,16016.00
2019-05-17T13:48:51.737Z,17344.00
2019-05-17T13:49:51.748Z,17632.00
2019-05-17T13:50:52.304Z,16180.00